createdAt,value
2022-08-19T00:02:00.176Z,100292.66
2022-08-19T00:04:32.252Z,100299.81
2022-08-19T00:07:01.367Z,100337.75
2022-08-19T00:09:31.650Z,100343.13
2022-08-19T00:12:00.747Z,100339.91
2022-08-19T00:14:32.757Z,100348.81
2022-08-19T00:17:02.386Z,100339.69
2022-08-19T00:19:31.063Z,100358.66
2022-08-19T00:21:59.804Z,100323.00
2022-08-19T00:24:29.817Z,100358.06
2022-08-19T00:27:25.019Z,100362.88
2022-08-19T00:29:52.469Z,100359.78
2022-08-19T00:32:21.643Z,100365.72
2022-08-19T00:34:50.506Z,100326.56
2022-08-19T00:37:19.218Z,100335.50
2022-08-19T00:39:49.176Z,100351.16
2022-08-19T00:42:19.849Z,100346.06
2022-08-19T00:44:49.002Z,100373.97
2022-08-19T00:47:17.619Z,100360.50
2022-08-19T00:49:51.776Z,100372.97
2022-08-19T00:52:24.006Z,100376.66
2022-08-19T00:54:54.041Z,100356.38
2022-08-19T00:57:28.210Z,100369.19
2022-08-19T01:00:02.505Z,100384.53
2022-08-19T01:02:35.008Z,100362.63
2022-08-19T01:05:05.904Z,100387.59
2022-08-19T01:07:38.392Z,100382.66
2022-08-19T01:10:09.709Z,100355.97
2022-08-19T01:12:41.383Z,100365.72
2022-08-19T01:15:12.413Z,100400.38
2022-08-19T01:17:42.470Z,100401.38
2022-08-19T01:20:13.931Z,100347.38
2022-08-19T01:22:47.128Z,100383.66
2022-08-19T01:25:16.877Z,100369.78
2022-08-19T01:27:49.178Z,100379.38
2022-08-19T01:30:21.463Z,100388.97
2022-08-19T01:32:50.161Z,100385.00
2022-08-19T01:35:19.374Z,100403.13
2022-08-19T01:37:53.758Z,100410.28
2022-08-19T01:40:22.936Z,100404.25
2022-08-19T01:42:51.897Z,100335.69
2022-08-19T01:45:21.096Z,100405.34
2022-08-19T01:47:59.086Z,100400.34
2022-08-19T01:50:30.557Z,100364.28
2022-08-19T01:53:06.286Z,100408.13
2022-08-19T01:55:41.317Z,100404.69
2022-08-19T01:58:15.108Z,100384.28
2022-08-19T02:00:46.442Z,100385.94
2022-08-19T02:03:15.547Z,100400.47
2022-08-19T02:05:47.157Z,100391.94
2022-08-19T02:08:17.288Z,100402.44
2022-08-19T02:10:46.672Z,100400.72
2022-08-19T02:13:16.172Z,100397.16
2022-08-19T02:16:09.593Z,100406.00
2022-08-19T02:18:38.223Z,100372.41
2022-08-19T02:21:07.384Z,100404.81
2022-08-19T02:23:37.501Z,100402.22
2022-08-19T02:26:06.125Z,100400.53
2022-08-19T02:28:34.738Z,100398.75
2022-08-19T02:31:03.699Z,100391.75
2022-08-19T02:33:32.471Z,100405.91
2022-08-19T02:36:01.283Z,100429.03
2022-08-19T02:38:28.881Z,100427.13
2022-08-19T02:41:00.509Z,100434.34
2022-08-19T02:43:33.687Z,100433.31
2022-08-19T02:46:02.662Z,100435.06
2022-08-19T02:48:31.744Z,100408.47
2022-08-19T02:51:00.600Z,100410.31
2022-08-19T02:53:30.800Z,100412.06
2022-08-19T02:56:00.811Z,100436.97
2022-08-19T02:58:29.477Z,100429.03
2022-08-19T03:00:59.563Z,100425.50
2022-08-19T03:03:28.567Z,100422.81
2022-08-19T03:06:11.016Z,100374.66
2022-08-19T03:08:40.532Z,100429.06
2022-08-19T03:11:15.487Z,100397.84
2022-08-19T03:13:45.027Z,100388.56
2022-08-19T03:16:14.629Z,100407.53
2022-08-19T03:18:43.457Z,100441.16
2022-08-19T03:21:12.664Z,100426.25
2022-08-19T03:23:41.345Z,100441.06
2022-08-19T03:26:16.572Z,100436.88
2022-08-19T03:28:49.467Z,100395.34
2022-08-19T03:31:43.488Z,100438.19
2022-08-19T03:34:12.772Z,100418.59
2022-08-19T03:36:42.417Z,100424.69
2022-08-19T03:39:12.733Z,100410.41
2022-08-19T03:41:46.282Z,100440.31
2022-08-19T03:44:20.795Z,100423.03
2022-08-19T03:46:50.727Z,100435.50
2022-08-19T03:49:20.452Z,100446.91
2022-08-19T03:51:50.699Z,100426.25
2022-08-19T03:54:21.252Z,100439.59
2022-08-19T03:56:52.706Z,100441.91
2022-08-19T03:59:27.023Z,100438.84
2022-08-19T04:01:55.846Z,100432.53
2022-08-19T04:04:25.484Z,100437.03
2022-08-19T04:06:58.292Z,100434.56
2022-08-19T04:09:28.095Z,100416.03
2022-08-19T04:11:59.846Z,100380.63
2022-08-19T04:14:31.353Z,100412.59
2022-08-19T04:17:01.161Z,100441.88
2022-08-19T04:19:31.996Z,100435.63
2022-08-19T04:22:00.685Z,100439.00
2022-08-19T04:24:29.766Z,100446.69
2022-08-19T04:27:02.390Z,100447.50
2022-08-19T04:29:31.448Z,100424.03
2022-08-19T04:32:08.730Z,100453.75
2022-08-19T04:35:01.112Z,100454.25
2022-08-19T04:37:35.442Z,100451.06
2022-08-19T04:40:24.942Z,100392.69
2022-08-19T04:42:55.453Z,100454.47
2022-08-19T04:45:24.464Z,100458.38
2022-08-19T04:48:26.336Z,100453.03
2022-08-19T04:50:47.336Z,100444.19
2022-08-19T04:53:16.408Z,100459.31
2022-08-19T04:55:45.036Z,100454.00
2022-08-19T04:58:15.021Z,100420.56
2022-08-19T05:00:44.645Z,100428.19
2022-08-19T05:03:14.259Z,100456.47
2022-08-19T05:05:44.668Z,100474.63
2022-08-19T05:08:15.419Z,100465.59
2022-08-19T05:10:45.714Z,100456.69
2022-08-19T05:13:15.935Z,100455.78
2022-08-19T05:15:44.773Z,100453.31
2022-08-19T05:18:31.154Z,100454.00
2022-08-19T05:21:16.881Z,100403.38
2022-08-19T05:23:46.220Z,100414.16
2022-08-19T05:26:14.808Z,100456.59
2022-08-19T05:28:44.898Z,100449.19
2022-08-19T05:31:14.420Z,100446.88
2022-08-19T05:33:43.456Z,100459.03
2022-08-19T05:36:12.507Z,100445.91
2022-08-19T05:38:41.156Z,100453.63
2022-08-19T05:41:11.238Z,100460.97
2022-08-19T05:43:40.062Z,100410.22
2022-08-19T05:46:10.739Z,100453.25
2022-08-19T05:48:39.385Z,100448.13
2022-08-19T05:51:09.400Z,100460.56
2022-08-19T05:53:39.186Z,100437.00
2022-08-19T05:56:08.464Z,100462.19
2022-08-19T05:58:37.707Z,100441.28
2022-08-19T06:01:07.222Z,100460.25
2022-08-19T06:03:38.516Z,100451.56
2022-08-19T06:06:11.830Z,100431.56
2022-08-19T06:08:40.760Z,100450.81
2022-08-19T06:11:21.490Z,100417.13
2022-08-19T06:13:52.117Z,100453.50
2022-08-19T06:16:28.937Z,100435.00
2022-08-19T06:19:00.681Z,100385.34
2022-08-19T06:21:31.036Z,100454.03
2022-08-19T06:24:27.646Z,100454.91
2022-08-19T06:27:00.907Z,100413.50
2022-08-19T06:29:33.705Z,100481.84
2022-08-19T06:32:04.164Z,100468.06
2022-08-19T06:34:35.613Z,100469.69
2022-08-19T06:37:06.822Z,100434.75
2022-08-19T06:39:37.153Z,100404.59
2022-08-19T06:42:10.911Z,100472.13
2022-08-19T06:44:43.117Z,100468.84
2022-08-19T06:47:14.369Z,100422.88
2022-08-19T06:49:45.312Z,100458.78
2022-08-19T06:52:15.774Z,100458.47
2022-08-19T06:54:44.643Z,100443.09
2022-08-19T06:57:25.932Z,100431.81
2022-08-19T06:59:54.693Z,100474.50
2022-08-19T07:02:27.418Z,100466.63
2022-08-19T07:05:00.323Z,100466.63
2022-08-19T07:07:29.797Z,100464.13
2022-08-19T07:10:01.869Z,100473.63
2022-08-19T07:12:35.756Z,100459.91
2022-08-19T07:15:05.964Z,100450.50
2022-08-19T07:17:35.940Z,100450.44
2022-08-19T07:20:09.642Z,100440.69
2022-08-19T07:22:40.564Z,100450.44
2022-08-19T07:25:10.258Z,100426.44
2022-08-19T07:27:39.994Z,100426.84
2022-08-19T07:30:14.510Z,100465.59
2022-08-19T07:32:43.586Z,100426.53
2022-08-19T07:35:14.014Z,100405.16
2022-08-19T07:37:45.375Z,100465.94
2022-08-19T07:40:14.952Z,100459.09
2022-08-19T07:42:44.389Z,100442.16
2022-08-19T07:45:13.132Z,100457.84
2022-08-19T07:47:49.524Z,100437.56
2022-08-19T07:50:22.746Z,100460.47
2022-08-19T07:52:52.273Z,100442.88
2022-08-19T07:55:42.584Z,100464.59
2022-08-19T07:58:14.648Z,100451.75
2022-08-19T08:00:43.958Z,100426.06
2022-08-19T08:03:12.978Z,100443.91
2022-08-19T08:06:00.757Z,100450.13
2022-08-19T08:08:48.058Z,100460.88
2022-08-19T08:11:20.457Z,100468.09
2022-08-19T08:14:01.020Z,100470.47
2022-08-19T08:16:35.718Z,100469.59
2022-08-19T08:19:20.408Z,100451.47
2022-08-19T08:21:57.258Z,100469.34
2022-08-19T08:24:28.702Z,100481.75
2022-08-19T08:26:58.889Z,100477.47
2022-08-19T08:29:34.512Z,100492.13
2022-08-19T08:32:14.283Z,100441.41
2022-08-19T08:34:52.419Z,100450.06
2022-08-19T08:37:23.356Z,100465.91
2022-08-19T08:39:52.601Z,100489.13
2022-08-19T08:42:27.314Z,100494.19
2022-08-19T08:45:00.199Z,100499.19
2022-08-19T08:47:33.687Z,100485.44
2022-08-19T08:50:04.739Z,100480.31
2022-08-19T08:52:37.954Z,100486.00
2022-08-19T08:55:11.451Z,100442.38
2022-08-19T08:57:57.630Z,100428.25
2022-08-19T09:00:29.204Z,100476.53
2022-08-19T09:02:59.270Z,100433.19
2022-08-19T09:05:39.648Z,100418.34
2022-08-19T09:08:19.272Z,100476.22
2022-08-19T09:10:55.401Z,100466.06
2022-08-19T09:13:37.197Z,100406.88
2022-08-19T09:16:09.608Z,100445.78
2022-08-19T09:18:43.278Z,100459.56
2022-08-19T09:21:12.502Z,100459.16
2022-08-19T09:23:45.423Z,100465.00
2022-08-19T09:26:20.042Z,100459.09
2022-08-19T09:28:50.796Z,100475.81
2022-08-19T09:31:21.793Z,100466.59
2022-08-19T09:33:52.369Z,100489.44
2022-08-19T09:36:34.493Z,100396.38
2022-08-19T09:39:16.462Z,100489.00
2022-08-19T09:41:47.573Z,100494.09
2022-08-19T09:44:18.328Z,100458.41
2022-08-19T09:46:48.470Z,100481.53
2022-08-19T09:49:18.509Z,100495.03
2022-08-19T09:51:51.177Z,100490.09
2022-08-19T09:54:23.752Z,100471.19
2022-08-19T09:56:54.208Z,100495.69
2022-08-19T09:59:23.361Z,100508.53
2022-08-19T10:01:52.982Z,100480.41
2022-08-19T10:04:22.583Z,100487.34
2022-08-19T10:06:53.960Z,100501.47
2022-08-19T10:09:34.301Z,100478.72
2022-08-19T10:12:04.199Z,100468.38
2022-08-19T10:14:35.212Z,100510.69
2022-08-19T10:17:18.000Z,100510.41
2022-08-19T10:19:55.091Z,100484.97
2022-08-19T10:22:25.432Z,100485.81
2022-08-19T10:24:56.326Z,100475.66
2022-08-19T10:27:26.458Z,100492.94
2022-08-19T10:29:55.519Z,100493.31
2022-08-19T10:32:32.047Z,100485.06
2022-08-19T10:35:06.031Z,100482.88
2022-08-19T10:37:35.315Z,100510.88
2022-08-19T10:40:08.916Z,100505.75
2022-08-19T10:42:39.241Z,100495.22
2022-08-19T10:45:10.747Z,100523.13
2022-08-19T10:47:39.552Z,100520.19
2022-08-19T10:50:28.771Z,100512.16
2022-08-19T10:52:58.780Z,100503.00
2022-08-19T10:55:46.352Z,100482.69
2022-08-19T10:58:16.589Z,100506.59
2022-08-19T11:00:46.403Z,100492.31
2022-08-19T11:03:15.048Z,100488.03
2022-08-19T11:05:43.711Z,100515.00
2022-08-19T11:08:22.248Z,100496.72
2022-08-19T11:10:54.809Z,100493.75
2022-08-19T11:13:24.453Z,100503.16
2022-08-19T11:16:03.833Z,100502.41
2022-08-19T11:18:35.918Z,100442.63
2022-08-19T11:21:12.577Z,100521.63
2022-08-19T11:23:41.374Z,100511.38
2022-08-19T11:26:12.003Z,100471.50
2022-08-19T11:28:40.942Z,100499.84
2022-08-19T11:31:12.918Z,100502.06
2022-08-19T11:33:41.844Z,100498.84
2022-08-19T11:36:17.611Z,100493.59
2022-08-19T11:38:49.405Z,100508.25
2022-08-19T11:41:21.424Z,100462.88
2022-08-19T11:43:50.170Z,100511.97
2022-08-19T11:46:19.648Z,100444.75
2022-08-19T11:48:49.242Z,100508.94
2022-08-19T11:51:19.931Z,100501.78
2022-08-19T11:53:48.948Z,100487.69
2022-08-19T11:56:19.042Z,100491.59
2022-08-19T11:58:47.874Z,100497.63
2022-08-19T12:01:18.741Z,100518.56
2022-08-19T12:03:48.375Z,100494.44
2022-08-19T12:06:19.964Z,100491.72
2022-08-19T12:08:49.875Z,100498.59
2022-08-19T12:11:20.108Z,100445.31
2022-08-19T12:13:48.881Z,100492.41
2022-08-19T12:16:22.173Z,100505.81
2022-08-19T12:18:51.983Z,100495.81
2022-08-19T12:21:22.360Z,100484.03
2022-08-19T12:23:55.640Z,100510.09
2022-08-19T12:26:26.244Z,100470.34
2022-08-19T12:28:57.092Z,100488.50
2022-08-19T12:31:26.797Z,100496.41
2022-08-19T12:33:55.527Z,100459.16
2022-08-19T12:36:24.348Z,100476.88
2022-08-19T12:38:53.237Z,100499.09
2022-08-19T12:41:23.381Z,100484.03
2022-08-19T12:43:53.636Z,100475.81
2022-08-19T12:46:25.377Z,100485.19
2022-08-19T12:48:56.207Z,100490.59
2022-08-19T12:51:26.418Z,100476.72
2022-08-19T12:53:55.076Z,100438.38
2022-08-19T12:56:23.749Z,100483.47
2022-08-19T12:58:53.944Z,100476.88
2022-08-19T13:01:23.555Z,100484.50
2022-08-19T13:03:54.612Z,100485.06
2022-08-19T13:06:23.764Z,100448.91
2022-08-19T13:08:55.503Z,100494.56
2022-08-19T13:11:27.940Z,100476.44
2022-08-19T13:13:58.090Z,100488.41
2022-08-19T13:16:28.789Z,100494.31
2022-08-19T13:18:58.147Z,100485.91
2022-08-19T13:21:28.985Z,100471.31
2022-08-19T13:23:58.246Z,100487.34
2022-08-19T13:26:28.444Z,100452.03
2022-08-19T13:29:15.860Z,100457.66
2022-08-19T13:32:02.290Z,100480.91
2022-08-19T13:34:35.077Z,100481.19
2022-08-19T13:37:05.278Z,100476.25
2022-08-19T13:39:34.511Z,100495.63
2022-08-19T13:42:04.533Z,100494.00
2022-08-19T13:44:36.570Z,100469.22
2022-08-19T13:47:08.185Z,100480.69
2022-08-19T13:49:38.248Z,100483.44
2022-08-19T13:52:07.461Z,100480.31
2022-08-19T13:54:36.130Z,100494.00
2022-08-19T13:57:05.011Z,100503.69
2022-08-19T13:59:33.967Z,100504.13
2022-08-19T14:02:06.591Z,100499.78
2022-08-19T14:04:35.282Z,100502.34
2022-08-19T14:07:04.540Z,100516.19
2022-08-19T14:09:33.344Z,100500.53
2022-08-19T14:12:02.019Z,100493.78
2022-08-19T14:14:31.297Z,100463.16
2022-08-19T14:17:00.459Z,100510.59
2022-08-19T14:19:30.687Z,100441.63
2022-08-19T14:22:00.007Z,100497.19
2022-08-19T14:24:28.753Z,100435.53
2022-08-19T14:26:57.553Z,100499.22
2022-08-19T14:29:26.310Z,100516.28
2022-08-19T14:31:55.140Z,100514.00
2022-08-19T14:34:24.435Z,100503.78
2022-08-19T14:36:54.581Z,100502.94
2022-08-19T14:39:23.185Z,100490.28
2022-08-19T14:41:51.808Z,100504.25
2022-08-19T14:44:20.661Z,100509.16
2022-08-19T14:46:49.829Z,100519.44
2022-08-19T14:49:19.636Z,100515.06
2022-08-19T14:51:48.870Z,100495.59
2022-08-19T14:54:19.190Z,100492.25
2022-08-19T14:56:47.904Z,100515.22
2022-08-19T14:59:16.702Z,100508.19
2022-08-19T15:01:45.703Z,100495.59
2022-08-19T15:04:14.373Z,100487.69
2022-08-19T15:06:43.429Z,100496.06
2022-08-19T15:09:12.641Z,100495.91
2022-08-19T15:11:44.160Z,100520.84
2022-08-19T15:14:12.815Z,100518.56
2022-08-19T15:16:42.882Z,100507.72
2022-08-19T15:19:13.151Z,100520.91
2022-08-19T15:21:41.970Z,100521.00
2022-08-19T15:24:10.633Z,100495.97
2022-08-19T15:26:39.290Z,100526.31
2022-08-19T15:29:09.447Z,100508.31
2022-08-19T15:31:38.905Z,100528.31
2022-08-19T15:34:08.101Z,100497.09
2022-08-19T15:36:37.472Z,100517.84
2022-08-19T15:39:10.079Z,100537.13
2022-08-19T15:41:41.342Z,100534.16
2022-08-19T15:44:14.866Z,100543.63
2022-08-19T15:46:44.952Z,100535.28
2022-08-19T15:49:15.397Z,100529.16
2022-08-19T15:51:45.956Z,100526.56
2022-08-19T15:54:17.336Z,100559.72
2022-08-19T15:57:05.710Z,100561.53
2022-08-19T15:59:53.839Z,100547.06
2022-08-19T16:02:42.674Z,100544.47
2022-08-19T16:05:34.221Z,100566.13
2022-08-19T16:08:02.969Z,100567.25
2022-08-19T16:10:31.671Z,100499.78
2022-08-19T16:13:00.564Z,100560.09
2022-08-19T16:15:31.999Z,100531.78
2022-08-19T16:18:02.421Z,100560.94
2022-08-19T16:20:31.700Z,100528.69
2022-08-19T16:23:03.660Z,100572.84
2022-08-19T16:25:33.133Z,100572.25
2022-08-19T16:28:07.532Z,100569.78
2022-08-19T16:30:43.108Z,100566.69
2022-08-19T16:33:22.856Z,100572.78
2022-08-19T16:36:00.319Z,100590.56
2022-08-19T16:38:37.039Z,100561.38
2022-08-19T16:41:06.103Z,100567.38
2022-08-19T16:43:35.574Z,100564.28
2022-08-19T16:46:05.773Z,100582.44
2022-08-19T16:48:34.636Z,100533.03
2022-08-19T16:51:09.558Z,100571.16
2022-08-19T16:53:39.450Z,100582.66
2022-08-19T16:56:09.776Z,100577.59
2022-08-19T16:58:38.617Z,100607.25
2022-08-19T17:01:10.570Z,100612.44
2022-08-19T17:03:40.064Z,100567.97
2022-08-19T17:06:20.181Z,100606.34
2022-08-19T17:08:50.748Z,100623.31
2022-08-19T17:11:19.979Z,100635.81
2022-08-19T17:13:49.543Z,100631.16
2022-08-19T17:16:22.183Z,100581.56
2022-08-19T17:18:52.965Z,100641.75
2022-08-19T17:21:27.872Z,100614.34
2022-08-19T17:23:57.859Z,100646.50
2022-08-19T17:26:27.467Z,100641.63
2022-08-19T17:28:57.981Z,100632.88
2022-08-19T17:31:30.709Z,100620.75
2022-08-19T17:33:59.895Z,100634.84
2022-08-19T17:36:31.400Z,100636.41
2022-08-19T17:39:01.942Z,100641.31
2022-08-19T17:41:34.090Z,100641.53
2022-08-19T17:44:04.364Z,100642.72
2022-08-19T17:46:35.399Z,100623.06
2022-08-19T17:49:03.959Z,100630.84
2022-08-19T17:51:45.140Z,100663.34
2022-08-19T17:54:16.166Z,100653.19
2022-08-19T17:56:45.471Z,100653.41
2022-08-19T17:59:14.645Z,100652.00
2022-08-19T18:01:53.083Z,100611.25
2022-08-19T18:04:25.630Z,100654.03
2022-08-19T18:06:55.719Z,100630.19
2022-08-19T18:09:26.417Z,100630.88
2022-08-19T18:11:56.988Z,100617.25
2022-08-19T18:14:33.494Z,100643.75
2022-08-19T18:17:09.463Z,100661.41
2022-08-19T18:19:41.275Z,100645.34
2022-08-19T18:22:13.465Z,100655.81
2022-08-19T18:24:45.817Z,100636.31
2022-08-19T18:27:15.515Z,100666.03
2022-08-19T18:29:44.085Z,100630.25
2022-08-19T18:32:14.545Z,100647.94
2022-08-19T18:34:43.868Z,100629.47
2022-08-19T18:37:13.305Z,100642.59
2022-08-19T18:39:59.386Z,100651.97
2022-08-19T18:42:45.489Z,100631.72
2022-08-19T18:45:31.726Z,100649.22
2022-08-19T18:48:27.796Z,100668.31
2022-08-19T18:50:58.557Z,100672.88
2022-08-19T18:53:31.039Z,100658.53
2022-08-19T18:55:59.958Z,100664.38
2022-08-19T18:58:32.512Z,100583.97
2022-08-19T19:01:01.711Z,100654.28
2022-08-19T19:03:31.953Z,100662.00
2022-08-19T19:06:00.612Z,100639.63
2022-08-19T19:08:29.335Z,100647.50
2022-08-19T19:11:01.092Z,100668.94
2022-08-19T19:13:29.930Z,100649.34
2022-08-19T19:16:00.026Z,100662.94
2022-08-19T19:18:28.750Z,100666.78
2022-08-19T19:20:59.895Z,100622.28
2022-08-19T19:23:28.751Z,100671.31
2022-08-19T19:25:57.370Z,100664.41
2022-08-19T19:28:28.697Z,100678.63
2022-08-19T19:30:58.964Z,100669.78
2022-08-19T19:33:28.072Z,100640.53
2022-08-19T19:35:56.853Z,100680.56
2022-08-19T19:38:27.149Z,100678.88
2022-08-19T19:40:55.689Z,100677.41
2022-08-19T19:43:24.326Z,100662.09
2022-08-19T19:45:52.968Z,100683.97
2022-08-19T19:48:22.622Z,100682.97
2022-08-19T19:50:56.069Z,100685.69
2022-08-19T19:53:27.784Z,100666.28
2022-08-19T19:55:58.970Z,100686.59
2022-08-19T19:58:29.321Z,100681.78
2022-08-19T20:00:59.220Z,100677.59
2022-08-19T20:03:30.068Z,100648.16
2022-08-19T20:05:59.661Z,100692.34
2022-08-19T20:08:47.521Z,100683.63
2022-08-19T20:11:31.680Z,100677.41
2022-08-19T20:14:02.784Z,100677.94
2022-08-19T20:16:31.866Z,100691.38
2022-08-19T20:19:01.759Z,100695.81
2022-08-19T20:21:32.640Z,100633.66
2022-08-19T20:24:09.866Z,100645.22
2022-08-19T20:26:39.108Z,100657.91
2022-08-19T20:29:13.522Z,100672.03
2022-08-19T20:31:59.337Z,100622.84
2022-08-19T20:34:29.605Z,100696.06
2022-08-19T20:36:58.292Z,100684.97
2022-08-19T20:39:29.457Z,100678.78
2022-08-19T20:41:58.444Z,100702.94
2022-08-19T20:44:27.194Z,100653.13
2022-08-19T20:46:59.400Z,100695.34
2022-08-19T20:49:30.420Z,100659.88
2022-08-19T20:51:59.164Z,100682.31
2022-08-19T20:54:29.772Z,100677.31
2022-08-19T20:56:58.748Z,100692.03
2022-08-19T20:59:27.555Z,100702.53
2022-08-19T21:01:56.557Z,100700.88
2022-08-19T21:04:25.222Z,100708.06
2022-08-19T21:06:54.927Z,100681.50
2022-08-19T21:09:23.759Z,100691.50
2022-08-19T21:11:53.911Z,100698.75
2022-08-19T21:14:23.296Z,100682.75
2022-08-19T21:16:52.018Z,100688.84
2022-08-19T21:19:23.969Z,100700.06
2022-08-19T21:21:53.145Z,100716.66
2022-08-19T21:24:21.851Z,100711.47
2022-08-19T21:27:01.517Z,100716.00
2022-08-19T21:29:32.169Z,100720.59
2022-08-19T21:32:00.762Z,100711.03
2022-08-19T21:34:29.748Z,100713.81
2022-08-19T21:36:58.593Z,100686.59
2022-08-19T21:39:27.254Z,100711.59
2022-08-19T21:41:56.354Z,100714.31
2022-08-19T21:44:26.320Z,100714.34
2022-08-19T21:46:54.898Z,100704.28
2022-08-19T21:49:23.588Z,100712.88
2022-08-19T21:51:52.759Z,100699.06
2022-08-19T21:54:21.395Z,100720.97
2022-08-19T21:56:50.538Z,100675.25
2022-08-19T21:59:19.514Z,100722.94
2022-08-19T22:01:56.648Z,100690.28
2022-08-19T22:04:34.100Z,100699.97
2022-08-19T22:07:02.810Z,100712.97
2022-08-19T22:09:31.360Z,100727.03
2022-08-19T22:11:59.976Z,100722.91
2022-08-19T22:14:28.601Z,100726.56
2022-08-19T22:16:58.710Z,100735.44
2022-08-19T22:19:27.294Z,100703.78
2022-08-19T22:21:56.445Z,100694.59
2022-08-19T22:24:25.667Z,100740.44
2022-08-19T22:26:54.326Z,100722.38
2022-08-19T22:29:33.596Z,100732.69
2022-08-19T22:32:25.637Z,100731.94
2022-08-19T22:34:53.363Z,100721.25
2022-08-19T22:37:25.861Z,100696.44
2022-08-19T22:39:54.621Z,100711.03
2022-08-19T22:42:24.956Z,100748.47
2022-08-19T22:44:59.997Z,100746.84
2022-08-19T22:47:32.163Z,100746.09
2022-08-19T22:50:02.832Z,100749.69
2022-08-19T22:52:31.888Z,100751.59
2022-08-19T22:55:02.526Z,100751.78
2022-08-19T22:57:32.132Z,100748.22
2022-08-19T23:00:01.467Z,100719.13
2022-08-19T23:02:38.577Z,100751.97
2022-08-19T23:05:22.000Z,100727.25
2022-08-19T23:07:52.711Z,100737.53
2022-08-19T23:10:26.863Z,100691.16
2022-08-19T23:12:58.364Z,100694.75
2022-08-19T23:15:29.484Z,100751.06
2022-08-19T23:18:00.810Z,100759.66
2022-08-19T23:20:32.700Z,100761.53
2022-08-19T23:23:03.715Z,100765.81
2022-08-19T23:25:33.604Z,100765.88
2022-08-19T23:28:19.625Z,100743.69
2022-08-19T23:30:50.200Z,100768.66
2022-08-19T23:33:24.788Z,100769.56
2022-08-19T23:35:55.067Z,100766.19
2022-08-19T23:38:25.581Z,100770.56
2022-08-19T23:40:59.261Z,100740.78
2022-08-19T23:43:29.478Z,100764.94
2022-08-19T23:46:00.878Z,100770.16
2022-08-19T23:48:33.197Z,100741.94
2022-08-19T23:51:03.702Z,100771.22
2022-08-19T23:53:32.507Z,100753.31
2022-08-19T23:56:01.488Z,100760.06
2022-08-19T23:58:32.025Z,100771.47
